Time;durP1;ratioP1;P1;durP2;ratioP2;P2;SDS_P1;SDS_P2;PMS_P1;PMS_P2;Temp;Humidity;BMP_temperature;BMP_pressure;BME280_temperature;BME280_humidity;BME280_pressure;Samples;Min_cycle;Max_cycle;Signal;HPM_P1;HPM_P2
2020/12/28 00:03:14;;;;;;;14.33;7.33;;;;;3.30;97121.00;;;;10439038;28;20210;-75
2020/12/28 00:08:15;;;;;;;13.80;7.50;;;;;3.20;97121.00;;;;10456664;28;20194;-75
2020/12/28 00:13:16;;;;;;;18.03;7.83;;;;;3.10;97119.00;;;;10438065;28;20566;-75
2020/12/28 00:18:18;;;;;;;12.90;7.70;;;;;3.00;97131.00;;;;10421780;28;20225;-75
2020/12/28 00:23:19;;;;;;;15.13;7.33;;;;;2.90;97131.00;;;;10420837;28;20213;-75
2020/12/28 00:28:20;;;;;;;12.33;6.93;;;;;2.90;97116.00;;;;10421470;28;20652;-75
2020/12/28 00:33:21;;;;;;;19.57;6.97;;;;;2.80;97110.00;;;;10421103;28;20654;-75
2020/12/28 00:38:23;;;;;;;11.30;6.17;;;;;2.70;97105.00;;;;10441876;28;20221;-74
2020/12/28 00:43:24;;;;;;;10.90;5.80;;;;;2.60;97110.00;;;;10428880;28;20945;-75
2020/12/28 00:48:28;;;;;;;11.13;5.90;;;;;2.40;97109.00;;;;10462169;28;20198;-75
2020/12/28 00:53:30;;;;;;;14.87;5.50;;;;;2.40;97122.00;;;;10429222;28;20190;-75
2020/12/28 00:58:38;;;;;;;12.50;6.30;;;;;2.30;97123.00;;;;10429181;28;20267;-75
2020/12/28 01:03:41;;;;;;;12.83;5.67;;;;;2.30;97128.00;;;;10428479;28;20210;-75
2020/12/28 01:09:03;;;;;;;20.60;7.10;;;;;2.30;97131.00;;;;10414446;28;20221;-75
2020/12/28 01:14:06;;;;;;;13.20;7.13;;;;;2.30;97131.00;;;;10427890;28;20210;-75
2020/12/28 01:19:08;;;;;;;18.50;7.17;;;;;2.40;97117.00;;;;10427462;28;20198;-75
2020/12/28 01:24:12;;;;;;;14.87;6.83;;;;;2.40;97133.00;;;;10443860;28;20260;-75
2020/12/28 01:29:16;;;;;;;13.43;5.77;;;;;2.40;97147.00;;;;10435736;28;20206;-75
2020/12/28 01:34:22;;;;;;;17.03;7.33;;;;;2.30;97151.00;;;;10403281;28;20546;-75
2020/12/28 01:39:30;;;;;;;16.40;6.77;;;;;2.20;97137.00;;;;10369470;28;20202;-75
2020/12/28 01:44:32;;;;;;;17.60;7.50;;;;;2.20;97145.00;;;;10435418;28;20240;-75
2020/12/28 01:49:45;;;;;;;19.60;7.23;;;;;2.10;97159.00;;;;10426335;28;20229;-75
2020/12/28 01:54:48;;;;;;;9.90;6.13;;;;;2.10;97147.00;;;;10426627;28;20304;-75
2020/12/28 01:59:53;;;;;;;13.90;6.93;;;;;2.10;97146.00;;;;10425955;28;20202;-75
2020/12/28 02:05:14;;;;;;;13.50;7.37;;;;;2.10;97158.00;;;;10445391;28;20662;-75
2020/12/28 02:10:17;;;;;;;14.43;6.83;;;;;2.10;97152.00;;;;10409693;28;20832;-75
2020/12/28 02:15:19;;;;;;;14.70;7.13;;;;;2.10;97142.00;;;;10442464;28;20202;-76
2020/12/28 02:20:40;;;;;;;12.80;6.77;;;;;2.10;97137.00;;;;10427724;28;20221;-75
2020/12/28 02:25:42;;;;;;;9.30;5.53;;;;;2.10;97136.00;;;;10442172;28;20194;-75
2020/12/28 02:30:43;;;;;;;13.53;6.53;;;;;2.10;97142.00;;;;10441366;28;20194;-75
2020/12/28 02:36:01;;;;;;;12.23;6.87;;;;;2.10;97145.00;;;;10441920;28;20286;-75
2020/12/28 02:41:04;;;;;;;9.20;5.50;;;;;2.00;97150.00;;;;10408310;28;20580;-75
2020/12/28 02:46:25;;;;;;;11.43;5.77;;;;;2.00;97142.00;;;;10400606;28;20229;-75
2020/12/28 02:51:46;;;;;;;10.37;5.87;;;;;2.00;97142.00;;;;10385145;28;20206;-75
2020/12/28 02:57:05;;;;;;;11.93;5.63;;;;;2.00;97141.00;;;;10398712;28;20195;-75
2020/12/28 03:02:39;;;;;;;10.77;6.03;;;;;2.00;97139.00;;;;10381309;28;20223;-75
2020/12/28 03:07:58;;;;;;;13.50;6.17;;;;;2.10;97133.00;;;;10398568;28;20195;-75
2020/12/28 03:13:18;;;;;;;6.93;5.90;;;;;2.00;97136.00;;;;10391391;28;20201;-75
2020/12/28 03:18:38;;;;;;;8.47;6.47;;;;;2.00;97131.00;;;;10425773;28;20549;-75
2020/12/28 03:23:58;;;;;;;11.27;5.97;;;;;2.00;97129.00;;;;10439035;28;20210;-75
2020/12/28 03:29:18;;;;;;;13.13;6.37;;;;;1.90;97148.00;;;;10442015;28;20280;-75
2020/12/28 03:34:37;;;;;;;12.70;7.70;;;;;1.90;97134.00;;;;10438989;28;20190;-75
2020/12/28 03:39:57;;;;;;;11.00;6.93;;;;;1.90;97129.00;;;;10442261;28;20198;-75
2020/12/28 03:45:37;;;;;;;9.33;6.87;;;;;1.90;97118.00;;;;10272860;28;20731;-75
2020/12/28 03:50:57;;;;;;;8.53;6.30;;;;;1.80;97121.00;;;;10406757;28;20284;-75
2020/12/28 03:56:18;;;;;;;13.23;7.07;;;;;1.80;97130.00;;;;10455711;28;20190;-75
2020/12/28 04:01:38;;;;;;;9.50;7.03;;;;;1.70;97139.00;;;;10441108;28;20222;-75
2020/12/28 04:07:01;;;;;;;10.17;7.03;;;;;1.60;97128.00;;;;10455441;28;20201;-75
2020/12/28 04:12:31;;;;;;;13.97;6.53;;;;;1.50;97125.00;;;;10401522;28;20642;-75
2020/12/28 04:17:32;;;;;;;10.27;6.43;;;;;1.40;97132.00;;;;10418797;28;20812;-75
2020/12/28 04:22:34;;;;;;;9.70;5.93;;;;;1.30;97110.00;;;;10455352;28;20236;-75
2020/12/28 04:27:35;;;;;;;9.03;5.83;;;;;1.40;97114.00;;;;10437399;28;20232;-75
2020/12/28 04:32:36;;;;;;;10.23;6.37;;;;;1.30;97110.00;;;;10454986;28;20248;-75
2020/12/28 04:37:37;;;;;;;8.57;6.33;;;;;1.30;97120.00;;;;10420934;28;20255;-75
2020/12/28 04:42:42;;;;;;;11.83;6.13;;;;;1.30;97109.00;;;;10437126;28;20244;-75
2020/12/28 04:47:44;;;;;;;10.57;5.10;;;;;1.20;97114.00;;;;10429532;28;20222;-75
2020/12/28 04:52:47;;;;;;;14.13;5.30;;;;;1.20;97104.00;;;;10437438;28;20244;-75
2020/12/28 04:57:48;;;;;;;13.30;6.70;;;;;1.20;97103.00;;;;10436821;28;20233;-75
2020/12/28 05:02:50;;;;;;;12.77;6.70;;;;;1.10;97112.00;;;;10454745;28;20225;-75
2020/12/28 05:07:52;;;;;;;12.67;6.50;;;;;1.10;97101.00;;;;10437723;28;20190;-75
2020/12/28 05:12:53;;;;;;;14.80;6.40;;;;;1.00;97110.00;;;;10404240;28;20190;-75
2020/12/28 05:17:55;;;;;;;15.63;6.43;;;;;0.90;97106.00;;;;10436627;28;20721;-75
2020/12/28 05:22:56;;;;;;;9.87;5.30;;;;;0.90;97120.00;;;;10455263;28;20250;-75
2020/12/28 05:27:58;;;;;;;8.17;5.00;;;;;0.90;97122.00;;;;10444758;28;20252;-75
2020/12/28 05:33:04;;;;;;;10.40;5.17;;;;;0.80;97127.00;;;;10444932;28;20190;-75
2020/12/28 05:38:07;;;;;;;15.80;5.37;;;;;1.00;97108.00;;;;10427093;28;20194;-75
2020/12/28 05:43:08;;;;;;;11.90;6.00;;;;;1.30;97099.00;;;;10405133;28;20261;-75
2020/12/28 05:48:15;;;;;;;19.17;7.83;;;;;1.50;97101.00;;;;10369454;28;20248;-75
2020/12/28 05:53:21;;;;;;;11.90;5.60;;;;;1.40;97111.00;;;;10386168;28;20566;-75
2020/12/28 05:58:22;;;;;;;9.60;5.27;;;;;1.40;97106.00;;;;10401753;28;20586;-75
2020/12/28 06:03:25;;;;;;;14.53;5.93;;;;;1.40;97099.00;;;;10379245;28;20237;-75
2020/12/28 06:08:27;;;;;;;11.60;4.47;;;;;1.50;97103.00;;;;10399621;28;20199;-75
2020/12/28 06:13:29;;;;;;;10.60;4.40;;;;;1.50;97100.00;;;;10427138;28;20796;-75
2020/12/28 06:18:31;;;;;;;9.13;4.70;;;;;1.50;97099.00;;;;10425569;28;20191;-75
2020/12/28 06:23:32;;;;;;;15.03;4.23;;;;;1.50;97098.00;;;;10442441;28;20312;-75
2020/12/28 06:28:33;;;;;;;22.60;4.67;;;;;1.50;97107.00;;;;10441871;28;20190;-75
2020/12/28 06:33:35;;;;;;;9.60;4.10;;;;;1.40;97105.00;;;;10442076;28;20228;-75
2020/12/28 06:38:38;;;;;;;13.03;4.40;;;;;1.40;97099.00;;;;10441234;28;20269;-75
2020/12/28 06:43:40;;;;;;;18.57;4.60;;;;;1.40;97105.00;;;;10440345;28;20218;-75
2020/12/28 06:48:44;;;;;;;11.33;4.10;;;;;1.30;97100.00;;;;10424781;28;20618;-75
2020/12/28 06:53:54;;;;;;;14.87;3.87;;;;;1.20;97088.00;;;;10424512;28;20252;-75
2020/12/28 06:59:00;;;;;;;11.53;3.90;;;;;1.10;97101.00;;;;10440384;28;20194;-75
2020/12/28 07:04:04;;;;;;;12.97;3.17;;;;;1.00;97099.00;;;;10440692;28;20300;-75
2020/12/28 07:09:06;;;;;;;6.97;3.23;;;;;0.90;97109.00;;;;10439717;28;20228;-75
2020/12/28 07:14:08;;;;;;;11.33;4.17;;;;;0.70;97111.00;;;;10456980;28;20186;-75
2020/12/28 07:19:09;;;;;;;10.40;4.00;;;;;0.60;97105.00;;;;10423169;28;20222;-76
2020/12/28 07:24:10;;;;;;;9.10;4.07;;;;;0.60;97109.00;;;;10439829;28;20208;-75
2020/12/28 07:29:17;;;;;;;9.47;3.37;;;;;0.60;97110.00;;;;10431805;28;20597;-75
2020/12/28 07:34:19;;;;;;;14.50;4.63;;;;;0.60;97124.00;;;;10381634;28;20190;-75
2020/12/28 07:39:22;;;;;;;14.47;4.27;;;;;0.80;97118.00;;;;10365946;28;20222;-75
2020/12/28 07:44:23;;;;;;;13.40;3.67;;;;;0.70;97113.00;;;;10397463;28;20686;-75
2020/12/28 07:49:28;;;;;;;15.20;4.07;;;;;0.70;97116.00;;;;10397086;28;20206;-75
2020/12/28 07:54:40;;;;;;;7.03;3.40;;;;;0.70;97106.00;;;;10365202;28;20237;-75
2020/12/28 07:59:46;;;;;;;15.07;4.53;;;;;0.80;97114.00;;;;10388891;28;20290;-75
2020/12/28 08:04:48;;;;;;;7.87;3.83;;;;;1.00;97107.00;;;;10380646;28;20249;-75
2020/12/28 08:09:55;;;;;;;13.87;5.70;;;;;1.20;97106.00;;;;10382612;28;20237;-75
2020/12/28 08:14:57;;;;;;;17.40;5.23;;;;;1.40;97116.00;;;;10404945;28;20197;-75
2020/12/28 08:20:12;;;;;;;13.50;4.50;;;;;1.60;97131.00;;;;10421776;28;20605;-75
2020/12/28 08:25:14;;;;;;;13.90;4.53;;;;;1.70;97125.00;;;;10438262;28;20558;-75
2020/12/28 08:30:15;;;;;;;21.13;13.43;;;;;1.80;97130.00;;;;10420768;28;20857;-75
2020/12/28 08:35:17;;;;;;;12.03;5.07;;;;;1.80;97139.00;;;;10437986;28;20286;-75
2020/12/28 08:40:21;;;;;;;18.50;4.63;;;;;1.70;97150.00;;;;10403876;28;20186;-75
2020/12/28 08:45:27;;;;;;;13.00;4.40;;;;;1.70;97145.00;;;;10404004;28;20229;-75
2020/12/28 08:50:34;;;;;;;18.37;11.07;;;;;1.70;97154.00;;;;10437664;28;20218;-75
2020/12/28 08:55:35;;;;;;;12.93;4.80;;;;;1.80;97140.00;;;;10420417;28;20222;-75
2020/12/28 09:00:37;;;;;;;7.73;4.70;;;;;1.80;97141.00;;;;10441110;28;20698;-75
2020/12/28 09:05:38;;;;;;;12.00;5.73;;;;;2.00;97144.00;;;;10411438;28;20194;-75
2020/12/28 09:10:39;;;;;;;8.83;4.80;;;;;2.00;97145.00;;;;10427937;28;20256;-75
2020/12/28 09:15:40;;;;;;;12.97;4.13;;;;;2.10;97147.00;;;;10401781;28;20654;-75
2020/12/28 09:20:42;;;;;;;7.53;4.20;;;;;2.10;97164.00;;;;10386013;28;20249;-75
2020/12/28 09:25:43;;;;;;;10.07;3.90;;;;;2.00;97153.00;;;;10402377;28;20198;-75
2020/12/28 09:30:44;;;;;;;13.43;4.33;;;;;2.10;97160.00;;;;10385691;28;20187;-75
2020/12/28 09:35:46;;;;;;;20.60;11.47;;;;;2.30;97157.00;;;;10408719;28;20232;-75
2020/12/28 09:40:47;;;;;;;17.87;14.03;;;;;2.50;97158.00;;;;10460923;28;20314;-75
2020/12/28 09:45:48;;;;;;;15.83;6.93;;;;;2.70;97142.00;;;;10398705;28;20254;-75
2020/12/28 09:50:50;;;;;;;17.27;4.43;;;;;3.00;97146.00;;;;10369071;28;20282;-75
2020/12/28 09:55:52;;;;;;;9.43;4.90;;;;;3.20;97147.00;;;;10368517;28;20226;-75
2020/12/28 10:00:53;;;;;;;11.13;5.37;;;;;3.40;97135.00;;;;10425339;28;20245;-75
2020/12/28 10:05:54;;;;;;;11.40;6.57;;;;;3.60;97140.00;;;;10425308;28;20268;-75
2020/12/28 10:10:56;;;;;;;10.70;3.03;;;;;3.60;97140.00;;;;10457817;28;20210;-75
2020/12/28 10:15:57;;;;;;;31.33;21.00;;;;;3.60;97146.00;;;;10455062;28;20198;-75
2020/12/28 10:20:58;;;;;;;15.10;12.50;;;;;3.70;97150.00;;;;10384521;28;20242;-75
2020/12/28 10:25:59;;;;;;;9.80;4.70;;;;;3.70;97146.00;;;;10400900;28;20182;-75
2020/12/28 10:31:07;;;;;;;10.10;4.90;;;;;3.90;97148.00;;;;10384085;28;20595;-75
2020/12/28 10:36:20;;;;;;;15.47;10.00;;;;;4.00;97156.00;;;;10383972;28;20265;-75
2020/12/28 10:41:29;;;;;;;7.23;4.17;;;;;4.10;97151.00;;;;10399150;28;20302;-75
2020/12/28 10:46:32;;;;;;;8.90;4.10;;;;;4.20;97146.00;;;;10450341;28;20288;-75
2020/12/28 10:51:34;;;;;;;10.43;3.23;;;;;4.20;97153.00;;;;10440599;28;20214;-75
2020/12/28 10:56:35;;;;;;;6.63;2.50;;;;;4.30;97146.00;;;;10423762;28;20195;-75
2020/12/28 11:01:36;;;;;;;5.13;2.60;;;;;4.20;97148.00;;;;10439626;28;20271;-75
2020/12/28 11:06:41;;;;;;;3.10;2.70;;;;;4.20;97149.00;;;;10423157;28;20198;-75
2020/12/28 11:11:51;;;;;;;7.83;3.90;;;;;4.20;97156.00;;;;10440197;28;20182;-75
2020/12/28 11:16:52;;;;;;;9.23;3.00;;;;;4.20;97164.00;;;;10422542;28;20277;-75
2020/12/28 11:21:53;;;;;;;8.33;3.70;;;;;4.30;97163.00;;;;10422932;28;20296;-75
2020/12/28 11:26:54;;;;;;;6.27;3.20;;;;;4.30;97168.00;;;;10457167;28;20268;-75
2020/12/28 11:31:56;;;;;;;8.40;3.57;;;;;4.40;97166.00;;;;10422595;28;20213;-75
2020/12/28 11:36:57;;;;;;;5.60;3.23;;;;;4.30;97168.00;;;;10422846;28;20202;-75
2020/12/28 11:41:58;;;;;;;5.93;2.87;;;;;4.30;97168.00;;;;10456924;28;20613;-75
2020/12/28 11:47:02;;;;;;;8.33;3.57;;;;;4.20;97161.00;;;;10401657;28;20645;-75
2020/12/28 11:52:03;;;;;;;6.60;3.30;;;;;4.30;97165.00;;;;10364960;28;20708;-75
2020/12/28 11:57:04;;;;;;;8.53;3.10;;;;;4.50;97157.00;;;;10380594;28;20195;-75
2020/12/28 12:02:06;;;;;;;9.70;4.07;;;;;5.00;97136.00;;;;10397310;28;20253;-76
2020/12/28 12:07:07;;;;;;;9.50;3.87;;;;;5.60;97141.00;;;;10397058;28;20193;-76
2020/12/28 12:12:09;;;;;;;10.13;3.70;;;;;5.80;97140.00;;;;10380583;28;20697;-75
2020/12/28 12:17:10;;;;;;;8.70;4.37;;;;;5.60;97142.00;;;;10435679;28;20213;-75
2020/12/28 12:22:19;;;;;;;17.07;5.43;;;;;5.30;97148.00;;;;10452800;28;20665;-75
2020/12/28 12:27:20;;;;;;;9.40;4.50;;;;;5.40;97141.00;;;;10454734;28;20599;-75
2020/12/28 12:32:22;;;;;;;10.43;4.33;;;;;5.70;97134.00;;;;10422137;28;20649;-75
2020/12/28 12:37:23;;;;;;;9.07;4.03;;;;;5.80;97136.00;;;;10429156;28;20650;-75
2020/12/28 12:42:25;;;;;;;6.57;3.57;;;;;6.00;97132.00;;;;10428847;28;20249;-75
2020/12/28 12:47:26;;;;;;;7.93;3.60;;;;;6.40;97122.00;;;;10445922;28;20248;-75
2020/12/28 12:52:28;;;;;;;4.53;3.17;;;;;6.70;97116.00;;;;10463603;28;20194;-75
2020/12/28 12:57:29;;;;;;;6.40;3.10;;;;;6.50;97118.00;;;;10428588;28;20273;-75
2020/12/28 13:02:32;;;;;;;9.37;3.60;;;;;6.10;97118.00;;;;10444686;28;20245;-75
2020/12/28 13:07:35;;;;;;;12.53;10.90;;;;;5.80;97117.00;;;;10444972;28;20236;-75
2020/12/28 13:12:40;;;;;;;6.60;3.97;;;;;5.60;97112.00;;;;10444887;28;20190;-75
2020/12/28 13:17:41;;;;;;;13.13;4.33;;;;;5.60;97110.00;;;;10427818;28;20205;-75
2020/12/28 13:22:42;;;;;;;7.30;3.90;;;;;5.50;97108.00;;;;10443758;28;20237;-75
2020/12/28 13:27:44;;;;;;;4.70;3.40;;;;;5.40;97122.00;;;;10427471;28;20225;-75
2020/12/28 13:32:45;;;;;;;7.63;3.90;;;;;5.40;97118.00;;;;10444278;28;20202;-75
2020/12/28 13:37:47;;;;;;;10.23;4.03;;;;;5.80;97105.00;;;;10443351;28;20195;-75
2020/12/28 13:42:48;;;;;;;5.77;3.37;;;;;6.00;97113.00;;;;10443082;28;20256;-75
2020/12/28 13:47:49;;;;;;;9.27;4.20;;;;;6.30;97095.00;;;;10442537;28;20235;-75
2020/12/28 13:52:50;;;;;;;6.43;3.40;;;;;6.60;97092.00;;;;10426868;28;20186;-75
2020/12/28 13:57:52;;;;;;;8.03;3.63;;;;;6.70;97093.00;;;;10409674;28;20875;-75
2020/12/28 14:02:54;;;;;;;7.80;3.40;;;;;6.90;97084.00;;;;10442477;28;20263;-75
2020/12/28 14:07:55;;;;;;;5.23;2.83;;;;;7.00;97088.00;;;;10409641;28;20236;-75
2020/12/28 14:12:56;;;;;;;7.40;2.80;;;;;6.90;97078.00;;;;10442614;28;20216;-75
2020/12/28 14:17:57;;;;;;;7.90;2.90;;;;;6.70;97086.00;;;;10442609;28;20285;-75
2020/12/28 14:22:59;;;;;;;3.23;2.70;;;;;6.40;97086.00;;;;10460110;28;20194;-75
2020/12/28 14:28:00;;;;;;;5.10;2.53;;;;;6.20;97098.00;;;;10425430;28;20248;-75
2020/12/28 14:33:03;;;;;;;2.80;2.13;;;;;6.10;97099.00;;;;10424869;28;20669;-75
2020/12/28 14:38:05;;;;;;;2.23;1.70;;;;;6.20;97101.00;;;;10441742;28;20214;-75
2020/12/28 14:43:06;;;;;;;3.57;2.47;;;;;6.20;97098.00;;;;10419783;28;20258;-75
2020/12/28 14:48:08;;;;;;;21.53;11.17;;;;;5.90;97115.00;;;;10434524;28;20194;-75
2020/12/28 14:53:09;;;;;;;3.30;3.00;;;;;5.70;97123.00;;;;10441002;28;20186;-75
2020/12/28 14:58:11;;;;;;;4.90;1.80;;;;;5.50;97129.00;;;;10398852;28;20225;-75
2020/12/28 15:03:12;;;;;;;3.57;1.43;;;;;5.40;97127.00;;;;10428912;28;20212;-75
2020/12/28 15:08:13;;;;;;;3.40;2.97;;;;;5.30;97140.00;;;;10423968;28;20240;-75
2020/12/28 15:13:15;;;;;;;4.20;2.27;;;;;5.20;97142.00;;;;10422516;28;20198;-75
2020/12/28 15:18:16;;;;;;;3.53;1.60;;;;;5.20;97150.00;;;;10455936;28;20218;-75
2020/12/28 15:23:17;;;;;;;6.60;5.90;;;;;5.10;97149.00;;;;10422242;28;20245;-75
2020/12/28 15:28:19;;;;;;;4.07;2.13;;;;;5.10;97166.00;;;;10439142;28;20301;-75
2020/12/28 15:33:21;;;;;;;5.77;4.33;;;;;5.00;97178.00;;;;10438925;28;20675;-75
2020/12/28 15:38:23;;;;;;;4.33;3.57;;;;;5.00;97172.00;;;;10455910;28;20194;-75
2020/12/28 15:43:24;;;;;;;6.00;3.53;;;;;5.00;97179.00;;;;10438656;28;20252;-75
2020/12/28 15:48:25;;;;;;;3.27;2.63;;;;;4.90;97181.00;;;;10421290;28;20236;-75
2020/12/28 15:53:28;;;;;;;2.63;2.23;;;;;4.90;97191.00;;;;10438368;28;20231;-75
2020/12/28 15:58:29;;;;;;;3.20;2.20;;;;;4.90;97181.00;;;;10420913;28;20206;-75
2020/12/28 16:03:32;;;;;;;6.77;5.73;;;;;4.80;97196.00;;;;10437503;28;20561;-75
2020/12/28 16:08:34;;;;;;;1.60;1.50;;;;;4.70;97191.00;;;;10420576;28;21050;-75
2020/12/28 16:13:35;;;;;;;1.80;1.70;;;;;4.70;97185.00;;;;10404294;28;20665;-75
2020/12/28 16:18:36;;;;;;;3.50;2.20;;;;;4.60;97183.00;;;;10436799;28;20297;-75
2020/12/28 16:23:38;;;;;;;1.73;1.60;;;;;4.50;97196.00;;;;10455089;28;20268;-75
2020/12/28 16:28:39;;;;;;;2.37;1.93;;;;;4.40;97186.00;;;;10455247;28;20190;-75
2020/12/28 16:33:40;;;;;;;2.53;2.10;;;;;4.40;97183.00;;;;10454282;28;20190;-75
2020/12/28 16:38:45;;;;;;;6.00;4.97;;;;;4.30;97183.00;;;;10420885;28;20222;-75
2020/12/28 16:43:49;;;;;;;4.47;2.80;;;;;4.20;97189.00;;;;10419803;28;20279;-75
2020/12/28 16:48:54;;;;;;;6.50;5.90;;;;;4.20;97187.00;;;;10420606;28;20289;-75
2020/12/28 16:53:55;;;;;;;3.67;2.83;;;;;4.20;97171.00;;;;10436775;28;20186;-75
2020/12/28 16:58:56;;;;;;;3.57;3.10;;;;;4.20;97175.00;;;;10436950;28;20305;-75
2020/12/28 17:03:58;;;;;;;4.00;2.90;;;;;4.20;97185.00;;;;10437235;28;20221;-75
2020/12/28 17:08:59;;;;;;;4.00;3.23;;;;;4.10;97182.00;;;;10420732;28;20194;-75
2020/12/28 17:14:04;;;;;;;5.17;3.97;;;;;4.10;97185.00;;;;10453668;28;20186;-75
2020/12/28 17:19:06;;;;;;;3.50;3.20;;;;;4.10;97198.00;;;;10421613;28;20198;-75
2020/12/28 17:24:08;;;;;;;3.87;3.37;;;;;4.10;97200.00;;;;10444171;28;20237;-75
2020/12/28 17:29:09;;;;;;;4.13;3.00;;;;;4.00;97199.00;;;;10444177;28;20187;-75
2020/12/28 17:34:10;;;;;;;3.27;2.97;;;;;4.00;97198.00;;;;10461601;28;20190;-75
2020/12/28 17:39:12;;;;;;;3.37;3.03;;;;;4.00;97195.00;;;;10427080;28;20197;-75
2020/12/28 17:44:13;;;;;;;2.90;2.47;;;;;4.00;97192.00;;;;10428552;28;20632;-76
2020/12/28 17:49:15;;;;;;;4.83;3.53;;;;;4.00;97206.00;;;;10447086;28;20897;-75
2020/12/28 17:54:16;;;;;;;6.70;5.57;;;;;4.00;97207.00;;;;10440166;28;20657;-76
2020/12/28 17:59:18;;;;;;;4.70;3.90;;;;;4.00;97208.00;;;;10425505;28;20209;-75
2020/12/28 18:04:21;;;;;;;4.90;4.40;;;;;4.10;97200.00;;;;10431742;28;20605;-75
2020/12/28 18:09:23;;;;;;;8.20;7.23;;;;;4.10;97221.00;;;;10410490;28;20194;-75
2020/12/28 18:14:44;;;;;;;5.07;4.57;;;;;4.10;97228.00;;;;10426998;28;20187;-75
2020/12/28 18:19:45;;;;;;;4.83;3.87;;;;;4.00;97234.00;;;;10435596;28;20216;-75
2020/12/28 18:24:47;;;;;;;6.63;5.30;;;;;4.00;97240.00;;;;10457909;28;20285;-75
2020/12/28 18:29:48;;;;;;;8.50;7.13;;;;;4.00;97241.00;;;;10458909;28;20248;-75
2020/12/28 18:34:50;;;;;;;11.63;8.93;;;;;4.00;97234.00;;;;10434812;28;20183;-75
2020/12/28 18:39:51;;;;;;;8.90;7.53;;;;;4.00;97247.00;;;;10443115;28;20281;-75
2020/12/28 18:44:52;;;;;;;36.90;22.13;;;;;4.00;97246.00;;;;10424476;28;20283;-75
2020/12/28 18:49:54;;;;;;;13.47;11.97;;;;;3.90;97256.00;;;;10422732;28;20190;-75
2020/12/28 18:54:55;;;;;;;7.87;5.90;;;;;3.90;97247.00;;;;10439182;28;20215;-75
2020/12/28 18:59:58;;;;;;;10.37;5.60;;;;;3.80;97248.00;;;;10425138;28;20197;-75
2020/12/28 19:04:59;;;;;;;10.43;5.63;;;;;3.70;97253.00;;;;10447402;28;20275;-75
2020/12/28 19:10:03;;;;;;;8.17;6.13;;;;;3.50;97260.00;;;;10410020;28;20191;-75
2020/12/28 19:15:04;;;;;;;7.57;5.07;;;;;3.20;97261.00;;;;10443762;28;20190;-75
2020/12/28 19:20:06;;;;;;;17.03;12.27;;;;;3.00;97269.00;;;;10420977;28;20197;-75
2020/12/28 19:25:07;;;;;;;27.07;16.10;;;;;2.80;97280.00;;;;10382552;28;20253;-75
2020/12/28 19:30:08;;;;;;;51.37;31.63;;;;;2.70;97275.00;;;;10415797;28;20201;-75
2020/12/28 19:35:10;;;;;;;23.30;15.90;;;;;2.50;97281.00;;;;10434384;28;20634;-75
2020/12/28 19:40:11;;;;;;;21.60;13.83;;;;;2.30;97282.00;;;;10440638;28;20227;-75
2020/12/28 19:45:13;;;;;;;18.70;13.83;;;;;2.10;97282.00;;;;10418148;28;20338;-75
2020/12/28 19:50:15;;;;;;;18.73;13.67;;;;;2.00;97290.00;;;;10420478;28;20611;-75
2020/12/28 19:55:16;;;;;;;16.60;10.40;;;;;1.90;97277.00;;;;10436692;28;20218;-75
2020/12/28 20:00:17;;;;;;;17.50;12.67;;;;;1.80;97283.00;;;;10453620;28;20226;-75
2020/12/28 20:05:19;;;;;;;14.20;9.67;;;;;1.60;97284.00;;;;10399437;28;20268;-75
2020/12/28 20:10:21;;;;;;;17.60;13.40;;;;;1.50;97286.00;;;;10423030;28;20205;-74
2020/12/28 20:15:28;;;;;;;18.33;13.23;;;;;1.40;97301.00;;;;10388549;28;20277;-75
2020/12/28 20:20:29;;;;;;;15.37;10.60;;;;;1.30;97299.00;;;;10411716;28;20194;-76
2020/12/28 20:25:31;;;;;;;13.30;8.33;;;;;1.20;97304.00;;;;10419788;28;20210;-75
2020/12/28 20:30:32;;;;;;;12.77;11.20;;;;;1.10;97297.00;;;;10412202;28;20203;-74
2020/12/28 20:35:33;;;;;;;22.53;15.23;;;;;1.00;97297.00;;;;10395050;28;20195;-75
2020/12/28 20:40:38;;;;;;;30.77;17.23;;;;;0.90;97314.00;;;;10395715;28;20222;-75
2020/12/28 20:45:41;;;;;;;26.13;18.40;;;;;0.90;97306.00;;;;10388667;28;20238;-75
2020/12/28 20:50:43;;;;;;;26.67;20.23;;;;;0.80;97309.00;;;;10454038;28;20240;-75
2020/12/28 20:55:44;;;;;;;24.70;17.97;;;;;0.80;97302.00;;;;10418848;28;20259;-75
2020/12/28 21:00:51;;;;;;;26.13;17.20;;;;;0.80;97309.00;;;;10424625;28;20201;-75
2020/12/28 21:05:52;;;;;;;34.77;21.43;;;;;0.80;97303.00;;;;10439129;28;20226;-75
2020/12/28 21:10:54;;;;;;;37.83;22.30;;;;;0.80;97310.00;;;;10430161;28;20637;-75
2020/12/28 21:15:55;;;;;;;39.33;23.30;;;;;0.70;97309.00;;;;10406388;28;20198;-75
2020/12/28 21:20:56;;;;;;;36.47;23.13;;;;;0.60;97306.00;;;;10443117;28;20194;-75
2020/12/28 21:25:58;;;;;;;62.60;37.90;;;;;0.60;97310.00;;;;10442893;28;20260;-75
2020/12/28 21:30:59;;;;;;;33.87;22.93;;;;;0.40;97304.00;;;;10443121;28;20335;-75
2020/12/28 21:36:02;;;;;;;38.03;24.40;;;;;0.30;97313.00;;;;10425839;28;20549;-75
2020/12/28 21:41:04;;;;;;;35.40;23.50;;;;;0.30;97318.00;;;;10460437;28;20193;-75
2020/12/28 21:46:07;;;;;;;42.13;25.53;;;;;0.20;97322.00;;;;10399993;28;20218;-75
2020/12/28 21:51:09;;;;;;;36.53;24.13;;;;;0.20;97330.00;;;;10416481;28;20234;-75
2020/12/28 21:56:10;;;;;;;32.33;21.57;;;;;0.10;97335.00;;;;10412090;28;20194;-75
2020/12/28 22:01:11;;;;;;;38.50;23.73;;;;;0.00;97349.00;;;;10426733;28;20237;-75
2020/12/28 22:06:13;;;;;;;35.93;23.67;;;;;0.00;97352.00;;;;10429716;28;20224;-75
2020/12/28 22:11:15;;;;;;;39.33;25.40;;;;;0.00;97355.00;;;;10447735;28;20233;-75
2020/12/28 22:16:19;;;;;;;39.10;26.90;;;;;0.00;97354.00;;;;10417041;28;20229;-75
2020/12/28 22:21:21;;;;;;;39.23;26.63;;;;;0.00;97360.00;;;;10425560;28;20187;-75
2020/12/28 22:26:22;;;;;;;40.67;27.53;;;;;0.10;97369.00;;;;10439808;28;20282;-75
2020/12/28 22:31:23;;;;;;;41.20;27.20;;;;;0.20;97382.00;;;;10418039;28;20191;-75
2020/12/28 22:36:25;;;;;;;41.90;28.23;;;;;0.40;97397.00;;;;10383176;28;20195;-75
2020/12/28 22:41:26;;;;;;;48.00;31.83;;;;;0.50;97395.00;;;;10422842;28;20692;-75
2020/12/28 22:46:28;;;;;;;37.50;26.13;;;;;0.60;97398.00;;;;10428804;28;20301;-75
2020/12/28 22:51:29;;;;;;;39.73;26.90;;;;;0.70;97408.00;;;;10425540;28;20194;-75
2020/12/28 22:56:31;;;;;;;39.27;26.57;;;;;0.80;97414.00;;;;10399218;28;20198;-75
2020/12/28 23:01:32;;;;;;;39.63;26.33;;;;;0.90;97433.00;;;;10409876;28;20223;-75
2020/12/28 23:06:34;;;;;;;41.27;26.97;;;;;1.00;97446.00;;;;10398408;28;20190;-75
2020/12/28 23:11:37;;;;;;;35.60;25.70;;;;;1.10;97437.00;;;;10398127;28;20685;-75
2020/12/28 23:16:39;;;;;;;40.37;25.77;;;;;1.10;97437.00;;;;10449174;28;20285;-75
2020/12/28 23:21:41;;;;;;;37.23;25.33;;;;;1.10;97450.00;;;;10457916;28;20277;-75
2020/12/28 23:27:06;;;;;;;36.07;23.90;;;;;1.10;97465.00;;;;10423030;28;20190;-75
2020/12/28 23:32:12;;;;;;;34.67;24.33;;;;;1.20;97454.00;;;;10439775;28;20244;-75
2020/12/28 23:37:15;;;;;;;39.17;24.80;;;;;1.20;97468.00;;;;10406123;28;20649;-75
2020/12/28 23:42:16;;;;;;;33.30;23.63;;;;;1.20;97478.00;;;;10422665;28;20669;-75
2020/12/28 23:47:18;;;;;;;37.37;27.07;;;;;1.20;97479.00;;;;10422595;28;20596;-75
2020/12/28 23:52:19;;;;;;;36.90;25.07;;;;;1.30;97491.00;;;;10439339;28;20585;-75
2020/12/28 23:57:20;;;;;;;36.27;25.60;;;;;1.30;97495.00;;;;10422080;28;20228;-75
